Observations for Trim Patrick St
| Time | AQI | Temp °C | Hum % | Pres Pa | CO μg/m³ | H₂S μg/m³ | NO μg/m³ | NO₂ μg/m³ | O₃ μg/m³ | SO₂ μg/m³ | PM1 μg/m³ | PM2.5 μg/m³ | PM10 μg/m³ |
|---|---|---|---|---|---|---|---|---|---|---|---|---|---|
| Thursday 6 August 2026 | |||||||||||||
| 11:20 | 1 | 23.9 | 45 | 68,806 | 0 | 0 | 2.11 | 3.81 | 47.91 | 6.43 | 2 | 6.71 | 7.38 |
| 11:19 | 2 | 23.8 | 44 | 68,813 | 0 | 0 | 2.04 | 6.33 | 67.78 | 6.17 | 2 | 6.77 | 7.44 |
| 11:18 | 2 | 23.8 | 46 | 68,821 | 0 | 0 | 2.13 | 4.5 | 61.9 | 6.44 | 2 | 7.47 | 8.22 |
| 11:17 | 2 | 23.8 | 43 | 68,804 | 0 | 0 | 2.06 | 6.42 | 64.9 | 5.91 | 2 | 6.84 | 7.52 |
| 11:16 | 1 | 23.8 | 45 | 68,809 | 0 | 0 | 2.09 | 5.44 | 58.19 | 6.43 | 2 | 6.74 | 7.42 |
| 11:15 | 2 | 23.8 | 45 | 68,817 | 0 | 0 | 2.1 | 6.59 | 65.9 | 6.93 | 2 | 6.73 | 7.4 |
| 11:14 | 1 | 23.8 | 45 | 68,821 | 0 | 0 | 2.12 | 8.17 | 67.95 | 6.16 | 2 | 7.5 | 8.25 |
| 11:13 | 1 | 23.7 | 43 | 68,802 | 0 | 0 | 2.07 | 1.2 | 53.84 | 7.21 | 2 | 6.85 | 7.53 |
| 11:12 | 1 | 23.7 | 45 | 68,809 | 0 | 0 | 2.08 | 6.84 | 65.85 | 5.89 | 2 | 6.74 | 7.41 |
| 11:11 | 1 | 23.7 | 44 | 68,813 | 0 | 0 | 2.05 | 1.01 | 38.01 | 6.15 | 2 | 6.77 | 7.44 |
| 11:10 | 1 | 23.7 | 46 | 68,825 | 0 | 0 | 2.21 | 6.39 | 65.54 | 4.97 | 2 | 6.65 | 7.32 |
| 11:09 | 1 | 23.7 | 45 | 68,835 | 0 | 0 | 2.11 | 3.33 | 35.45 | 6.59 | 2 | 6.72 | 7.39 |
| 11:07 | 1 | 23.6 | 46 | 68,837 | 0 | 0 | 2.19 | 5.79 | 60.42 | 6.11 | 2 | 6.67 | 7.34 |
| 11:06 | 1 | 23.6 | 46 | 68,821 | 0 | 0 | 2.13 | 4.57 | 58.22 | 6.76 | 2 | 6.7 | 7.37 |
| 11:05 | 1 | 23.5 | 46 | 68,835 | 0 | 0 | 2.2 | 8.74 | 60.5 | 5.16 | 2 | 6.67 | 7.34 |
| 11:04 | 1 | 23.5 | 47 | 68,845 | 0 | 0 | 2.29 | 6.8 | 64.4 | 6.3 | 2 | 6.6 | 7.26 |
| 11:02 | 1 | 23.4 | 48 | 68,835 | 0 | 0 | 2.45 | 1.05 | 32.11 | 6.19 | 2 | 6.54 | 7.19 |
| 11:01 | 1 | 23.3 | 50 | 68,841 | 0 | 0 | 2.72 | 9.05 | 67.29 | 6.48 | 2 | 6.4 | 7.04 |
| 11:00 | 1 | 23.2 | 48 | 68,851 | 0 | 0 | 2.47 | 7.33 | 63.69 | 6.06 | 2 | 6.56 | 7.21 |
| 10:59 | 1 | 23.1 | 47 | 68,861 | 0 | 0 | 2.36 | 7.41 | 65.18 | 5.67 | 2 | 6.6 | 7.26 |